Clutier, IA

9:23 PM CDT on May 24, 2015 (GMT -0500)
KIATRAER2 | | Change Station
CLOSE
Current Station
Personal Weather Station
Location: Traer, IA
Elevation: 955 ft
Nearby Weather Stations

Elev 955 ft 42.19 °N, 92.46 °W | Updated 4 minutes ago

Overcast
Overcast
64.9 °F
Feels Like 64.9 °F
N
1.0
Wind Variable Wind from South
Gusts 1.0 mph

Today
High -- | Low -- °F
--% Chance of Precip.
Yesterday
High -- | Low -- °F
Precip. -- in
5:41 AM 8:32 PM
Waxing Crescent, 44% visible
Pressure 29.79 in
Visibility 10.0 miles
Clouds Scattered Clouds 800 ft
Mostly Cloudy 2900 ft
Overcast 3700 ft
Dew Point 64 °F
Humidity 97%
Rainfall 0.72 in
Snow Depth Not available.
UV 0 out of 12
Pollen 3.90 out of 12
Air Quality Not available.
Flu Activity Sporadic
METAR KVTI 250215Z AUTO 16006KT 10SM SCT008 BKN029 OVC037 21/20 A2979 RMK AO2 T02130195

More Conditions Fewer Conditions

Pressure 29.79 in
Visibility 10.0 miles
Clouds Scattered Clouds 800 ft
Mostly Cloudy 2900 ft
Overcast 3700 ft
Dew Point 64 °F
Humidity 97%
Rainfall 0.72 in
Snow Depth Not available.
UV 0 out of 12
Pollen 3.90 out of 12
Air Quality Not available.
Flu Activity Sporadic
METAR KVTI 250215Z AUTO 16006KT 10SM SCT008 BKN029 OVC037 21/20 A2979 RMK AO2 T02130195

More Conditions Fewer Conditions

10-Day Weather Forecast

Almanac

Astronomy

May. 24, 2015 Rise Set
Actual Time
Civil Twilight
Nautical Twilight
Astronomical Twilight
Moon
Length of Visible Light
Length of Day
Tomorrow will be .
, % of the Moon is Illuminated

Today's Extremes

State Highs State Lows

Community

WunderPhotos

Upload Photos

1,823,923 photos uploaded!

WunderBlogs® & News

Nearby

Air Quality

  Air Quality AQ Index Pollutant
Not available.

Snow Depth

Station Depth Elevation

Earthquake Activity

City Distance Mag. Time & Date
Minimum magnitude displayed is 2.5.

Coastal Water Temperatures

Place Temperature

Stations

Nearby Weather Stations

Station Location Temp. Windchill Dew Point Humidity Wind Precip. Elev Updated Type